Adams, Oklahoma
Current Conditions -  °F | °C
As of 5:55 PM on Sunday 21 Dec 2014 (Local Time) from KLBL Reporting Station
Clear Clear  
Wind Chill:   Ceiling: Unl
Heat Index:   Visibility: 10mi
Dew Point:   Wind: 9mph
Humidity: 66%   Direction: 130°SE
Pressure: 29.58"   Gusts: NA
Location:  36.76°N, 101.08°W
Report Text: KLBL 212355Z AUTO 13008KT 10SM CLR 07/01 A2958 RMK AO1 10130 20060 401301010 57020
Loading
Personal Weather Stations






























Interactive Weather Map New forecast layout! Learn more

10-Day Weather Forecast

Advertisements
Track Severe Weather on mobile